Time;durP1;ratioP1;P1;durP2;ratioP2;P2;SDS_P1;SDS_P2;PMS_P1;PMS_P2;Temp;Humidity;BMP_temperature;BMP_pressure;BME280_temperature;BME280_humidity;BME280_pressure;Samples;Min_cycle;Max_cycle;Signal;HPM_P1;HPM_P2
2023/07/14 00:01:30;;;;;;;;;;;19.00;99.90;;;;;;5140543;27;20376;-54
2023/07/14 00:03:56;;;;;;;;;;;19.10;99.90;;;;;;5131713;27;19912;-56
2023/07/14 00:06:22;;;;;;;;;;;19.10;99.90;;;;;;5128421;27;20013;-56
2023/07/14 00:08:48;;;;;;;;;;;19.00;99.90;;;;;;5124239;27;19964;-56
2023/07/14 00:11:15;;;;;;;;;;;19.10;99.90;;;;;;5139387;27;19915;-56
2023/07/14 00:13:40;;;;;;;;;;;19.00;99.90;;;;;;5135785;27;20385;-55
2023/07/14 00:16:15;;;;;;;;;;;19.00;99.90;;;;;;5127834;27;20026;-53
2023/07/14 00:18:40;;;;;;;;;;;19.10;99.90;;;;;;5132888;27;19923;-56
2023/07/14 00:21:13;;;;;;;;;;;19.00;99.90;;;;;;5131115;27;19936;-55
2023/07/14 00:23:38;;;;;;;;;;;19.00;99.90;;;;;;5137655;27;20334;-56
2023/07/14 00:26:04;;;;;;;;;;;18.90;99.90;;;;;;5137636;27;19908;-55
2023/07/14 00:28:30;;;;;;;;;;;18.90;99.90;;;;;;5140654;27;19914;-55
2023/07/14 00:30:56;;;;;;;;;;;18.90;99.90;;;;;;5140258;27;19907;-56
2023/07/14 00:33:21;;;;;;;;;;;18.90;99.90;;;;;;5140170;27;19916;-55
2023/07/14 00:35:47;;;;;;;;;;;18.90;99.90;;;;;;5138339;27;19950;-57
2023/07/14 00:38:13;;;;;;;;;;;18.90;99.90;;;;;;5135900;27;19908;-53
2023/07/14 00:40:41;;;;;;;;;;;18.90;99.90;;;;;;5119420;28;19924;-56
2023/07/14 00:43:11;;;;;;;;;;;18.90;99.90;;;;;;5120605;27;19939;-54
2023/07/14 00:45:38;;;;;;;;;;;18.90;99.90;;;;;;5140165;27;19907;-55
2023/07/14 00:48:04;;;;;;;;;;;18.90;99.90;;;;;;5128821;27;19912;-55
2023/07/14 00:50:33;;;;;;;;;;;18.90;99.90;;;;;;5121884;27;20394;-56
2023/07/14 00:53:01;;;;;;;;;;;18.90;99.90;;;;;;5137305;27;19953;-56
2023/07/14 00:55:29;;;;;;;;;;;18.90;99.90;;;;;;5124476;27;19918;-56
2023/07/14 00:57:56;;;;;;;;;;;18.80;99.90;;;;;;5120945;27;19919;-55
2023/07/14 01:00:26;;;;;;;;;;;18.80;99.90;;;;;;5121487;27;20014;-56
2023/07/14 01:02:51;;;;;;;;;;;18.80;99.90;;;;;;5119047;28;19911;-55
2023/07/14 01:05:18;;;;;;;;;;;18.80;99.90;;;;;;5119033;28;20010;-56
2023/07/14 01:07:44;;;;;;;;;;;18.80;99.90;;;;;;5131144;27;19915;-56
2023/07/14 01:10:13;;;;;;;;;;;18.80;99.90;;;;;;5124584;27;19918;-54
2023/07/14 01:12:40;;;;;;;;;;;18.80;99.90;;;;;;5125918;27;19926;-54
2023/07/14 01:15:07;;;;;;;;;;;18.80;99.90;;;;;;5130483;27;19911;-55
2023/07/14 01:17:35;;;;;;;;;;;18.70;99.90;;;;;;5130034;27;20007;-56
2023/07/14 01:20:06;;;;;;;;;;;18.80;99.90;;;;;;5120739;27;20401;-53
2023/07/14 01:23:01;;;;;;;;;;;18.80;99.90;;;;;;5132758;27;19926;-55
2023/07/14 01:25:36;;;;;;;;;;;18.70;99.90;;;;;;5115712;27;19918;-55
2023/07/14 01:28:10;;;;;;;;;;;18.70;99.90;;;;;;5118364;28;19977;-56
2023/07/14 01:30:36;;;;;;;;;;;18.70;99.90;;;;;;5119320;28;20359;-55
2023/07/14 01:33:02;;;;;;;;;;;18.70;99.90;;;;;;5119571;27;19912;-56
2023/07/14 01:35:30;;;;;;;;;;;18.60;99.90;;;;;;5131117;27;20371;-56
2023/07/14 01:37:56;;;;;;;;;;;18.60;99.90;;;;;;5137973;27;19912;-54
2023/07/14 01:40:21;;;;;;;;;;;18.60;99.90;;;;;;5133776;27;19960;-56
2023/07/14 01:43:07;;;;;;;;;;;18.60;99.90;;;;;;5137258;27;19932;-55
2023/07/14 01:45:40;;;;;;;;;;;18.60;99.90;;;;;;5117262;28;19911;-55
2023/07/14 01:48:08;;;;;;;;;;;18.60;99.90;;;;;;5130693;27;19912;-53
2023/07/14 01:50:37;;;;;;;;;;;18.70;99.90;;;;;;5119283;28;19942;-56
2023/07/14 01:53:10;;;;;;;;;;;18.60;99.90;;;;;;5129744;28;19956;-56
2023/07/14 01:55:37;;;;;;;;;;;18.60;99.90;;;;;;5131679;28;19908;-56
2023/07/14 01:58:05;;;;;;;;;;;18.50;99.90;;;;;;5132758;27;20392;-55
2023/07/14 02:00:32;;;;;;;;;;;18.50;99.90;;;;;;5136485;27;20377;-54
2023/07/14 02:02:59;;;;;;;;;;;18.50;99.90;;;;;;5143210;27;19912;-53
2023/07/14 02:05:32;;;;;;;;;;;18.50;99.90;;;;;;5133439;27;20339;-56
2023/07/14 02:08:02;;;;;;;;;;;18.50;99.90;;;;;;5125590;27;19911;-55
2023/07/14 02:10:28;;;;;;;;;;;18.50;99.90;;;;;;5122361;27;20282;-55
2023/07/14 02:12:54;;;;;;;;;;;18.50;99.90;;;;;;5140522;27;19924;-56
2023/07/14 02:15:24;;;;;;;;;;;18.50;99.90;;;;;;5125443;27;19908;-55
2023/07/14 02:17:50;;;;;;;;;;;18.50;99.90;;;;;;5133994;27;19934;-56
2023/07/14 02:20:23;;;;;;;;;;;18.50;99.90;;;;;;5142459;27;19946;-53
2023/07/14 02:22:49;;;;;;;;;;;18.50;99.90;;;;;;5125607;27;20007;-52
2023/07/14 02:25:17;;;;;;;;;;;18.50;99.90;;;;;;5137697;27;20011;-55
2023/07/14 02:27:42;;;;;;;;;;;18.50;99.90;;;;;;5141079;27;20021;-54
2023/07/14 02:30:16;;;;;;;;;;;18.30;99.90;;;;;;5141188;27;19934;-54
2023/07/14 02:32:44;;;;;;;;;;;18.20;99.90;;;;;;5141094;27;19912;-56
2023/07/14 02:35:29;;;;;;;;;;;18.10;99.90;;;;;;5130697;27;20318;-53
2023/07/14 02:38:05;;;;;;;;;;;18.00;99.90;;;;;;5142209;27;19907;-55
2023/07/14 02:40:34;;;;;;;;;;;18.00;99.90;;;;;;5137106;27;19930;-56
2023/07/14 02:43:03;;;;;;;;;;;18.10;99.90;;;;;;5133859;27;20366;-54
2023/07/14 02:45:29;;;;;;;;;;;18.00;99.90;;;;;;5133870;27;19918;-55
2023/07/14 02:47:56;;;;;;;;;;;18.00;99.90;;;;;;5123773;27;19912;-55
2023/07/14 02:50:22;;;;;;;;;;;18.00;99.90;;;;;;5141352;27;19912;-54
2023/07/14 02:52:47;;;;;;;;;;;18.00;99.90;;;;;;5136311;27;20018;-56
2023/07/14 02:55:13;;;;;;;;;;;18.00;99.90;;;;;;5126209;27;19912;-55
2023/07/14 02:57:39;;;;;;;;;;;18.00;99.90;;;;;;5140192;27;19935;-54
2023/07/14 03:00:07;;;;;;;;;;;18.10;99.90;;;;;;5131441;27;19916;-56
2023/07/14 03:02:33;;;;;;;;;;;18.10;99.90;;;;;;5121183;27;19980;-56
2023/07/14 03:04:59;;;;;;;;;;;18.10;99.90;;;;;;5132224;27;20398;-55
2023/07/14 03:07:25;;;;;;;;;;;18.10;99.90;;;;;;5135481;27;19951;-55
2023/07/14 03:09:50;;;;;;;;;;;18.10;99.90;;;;;;5121467;27;19919;-56
2023/07/14 03:12:16;;;;;;;;;;;18.10;99.90;;;;;;5121148;27;19951;-55
2023/07/14 03:14:42;;;;;;;;;;;18.10;99.90;;;;;;5126091;27;20006;-54
2023/07/14 03:17:08;;;;;;;;;;;18.10;99.90;;;;;;5131388;27;19908;-55
2023/07/14 03:19:33;;;;;;;;;;;18.10;99.90;;;;;;5137296;27;20393;-56
2023/07/14 03:21:59;;;;;;;;;;;18.10;99.90;;;;;;5124814;27;19942;-55
2023/07/14 03:24:25;;;;;;;;;;;18.10;99.90;;;;;;5137146;27;19908;-53
2023/07/14 03:26:50;;;;;;;;;;;18.10;99.90;;;;;;5140269;27;19911;-56
2023/07/14 03:29:16;;;;;;;;;;;18.10;99.90;;;;;;5128188;27;19960;-56
2023/07/14 03:31:41;;;;;;;;;;;18.10;99.90;;;;;;5137282;27;19918;-56
2023/07/14 03:34:09;;;;;;;;;;;18.10;99.90;;;;;;5139878;27;20286;-56
2023/07/14 03:36:37;;;;;;;;;;;18.10;99.90;;;;;;5132900;27;19911;-56
2023/07/14 03:39:21;;;;;;;;;;;18.10;99.90;;;;;;5138797;27;20005;-55
2023/07/14 03:41:46;;;;;;;;;;;18.20;99.90;;;;;;5126106;27;20414;-56
2023/07/14 03:44:12;;;;;;;;;;;18.10;99.90;;;;;;5137313;27;19954;-55
2023/07/14 03:46:37;;;;;;;;;;;18.10;99.90;;;;;;5140634;27;19908;-53
2023/07/14 03:49:03;;;;;;;;;;;18.10;99.90;;;;;;5127552;27;20302;-54
2023/07/14 03:51:30;;;;;;;;;;;18.10;99.90;;;;;;5135948;27;19994;-55
2023/07/14 03:53:56;;;;;;;;;;;18.10;99.90;;;;;;5133297;27;19912;-55
2023/07/14 03:56:21;;;;;;;;;;;18.00;99.90;;;;;;5120626;28;19991;-56
2023/07/14 03:58:47;;;;;;;;;;;18.00;99.90;;;;;;5129576;27;20334;-56
2023/07/14 04:01:14;;;;;;;;;;;18.00;99.90;;;;;;5131077;27;20325;-55
2023/07/14 04:03:40;;;;;;;;;;;18.00;99.90;;;;;;5120217;28;19923;-56
2023/07/14 04:06:06;;;;;;;;;;;18.00;99.90;;;;;;5121121;27;20370;-55
2023/07/14 04:08:38;;;;;;;;;;;17.90;99.90;;;;;;5128032;27;19939;-54
2023/07/14 04:11:04;;;;;;;;;;;17.90;99.90;;;;;;5125342;27;19923;-54
2023/07/14 04:13:30;;;;;;;;;;;17.90;99.90;;;;;;5134869;27;19908;-55
2023/07/14 04:15:56;;;;;;;;;;;17.90;99.90;;;;;;5119633;27;19920;-55
2023/07/14 04:18:22;;;;;;;;;;;17.90;99.90;;;;;;5133195;27;19926;-52
2023/07/14 04:20:48;;;;;;;;;;;18.00;99.90;;;;;;5122464;27;19922;-56
2023/07/14 04:23:14;;;;;;;;;;;18.00;99.90;;;;;;5137727;27;19915;-54
2023/07/14 04:25:39;;;;;;;;;;;18.00;99.90;;;;;;5134189;27;19911;-56
2023/07/14 04:28:05;;;;;;;;;;;18.00;99.90;;;;;;5136248;27;20352;-56
2023/07/14 04:30:31;;;;;;;;;;;18.10;99.90;;;;;;5129531;27;19918;-56
2023/07/14 04:32:57;;;;;;;;;;;18.10;99.90;;;;;;5139897;27;20366;-56
2023/07/14 04:35:23;;;;;;;;;;;18.10;99.90;;;;;;5138410;27;19919;-55
2023/07/14 04:37:49;;;;;;;;;;;18.10;99.90;;;;;;5121863;27;20275;-55
2023/07/14 04:40:15;;;;;;;;;;;18.20;99.90;;;;;;5119349;28;19983;-56
2023/07/14 04:42:40;;;;;;;;;;;18.10;99.90;;;;;;5123430;27;19912;-56
2023/07/14 04:45:06;;;;;;;;;;;18.10;99.90;;;;;;5119125;27;19912;-55
2023/07/14 04:47:32;;;;;;;;;;;18.10;99.90;;;;;;5125608;27;19957;-55
2023/07/14 04:49:58;;;;;;;;;;;18.10;99.90;;;;;;5135336;27;19911;-55
2023/07/14 04:52:23;;;;;;;;;;;18.10;99.90;;;;;;5136693;27;19919;-54
2023/07/14 04:54:49;;;;;;;;;;;18.10;99.90;;;;;;5131172;27;19912;-56
2023/07/14 04:57:15;;;;;;;;;;;18.10;99.90;;;;;;5139662;27;19911;-56
2023/07/14 04:59:42;;;;;;;;;;;18.20;99.90;;;;;;5129828;27;20002;-56
2023/07/14 05:02:08;;;;;;;;;;;18.20;99.90;;;;;;5113469;27;19918;-56
2023/07/14 05:04:38;;;;;;;;;;;18.20;99.90;;;;;;5139639;27;19915;-56
2023/07/14 05:07:04;;;;;;;;;;;18.20;99.90;;;;;;5122181;27;19924;-55
2023/07/14 05:09:30;;;;;;;;;;;18.20;99.90;;;;;;5118838;27;19912;-56
2023/07/14 05:11:55;;;;;;;;;;;18.20;99.90;;;;;;5111593;27;19911;-56
2023/07/14 05:14:21;;;;;;;;;;;18.20;99.90;;;;;;5136366;27;19998;-55
2023/07/14 05:16:46;;;;;;;;;;;18.20;99.90;;;;;;5135778;27;19926;-56
2023/07/14 05:19:12;;;;;;;;;;;18.20;99.90;;;;;;5123453;27;19920;-56
2023/07/14 05:21:37;;;;;;;;;;;18.30;99.90;;;;;;5127175;27;19911;-55
2023/07/14 05:24:03;;;;;;;;;;;18.30;99.90;;;;;;5126621;27;19923;-55
2023/07/14 05:26:29;;;;;;;;;;;18.30;99.90;;;;;;5118737;28;19912;-56
2023/07/14 05:28:54;;;;;;;;;;;18.40;99.90;;;;;;5119413;27;19919;-55
2023/07/14 05:31:22;;;;;;;;;;;18.30;99.90;;;;;;5124284;27;19964;-55
2023/07/14 05:33:47;;;;;;;;;;;18.30;99.90;;;;;;5131635;27;19918;-54
2023/07/14 05:36:13;;;;;;;;;;;18.40;99.90;;;;;;5133822;27;19912;-55
2023/07/14 05:38:38;;;;;;;;;;;18.40;99.90;;;;;;5128854;27;19951;-55
2023/07/14 05:41:04;;;;;;;;;;;18.40;99.90;;;;;;5119760;27;20397;-56
2023/07/14 05:43:30;;;;;;;;;;;18.40;99.90;;;;;;5126350;27;19956;-56
2023/07/14 05:45:56;;;;;;;;;;;18.40;99.90;;;;;;5133676;27;19912;-55
2023/07/14 05:48:21;;;;;;;;;;;18.40;99.90;;;;;;5131401;28;19918;-54
2023/07/14 05:50:48;;;;;;;;;;;18.50;99.90;;;;;;5122331;27;19919;-56
2023/07/14 05:53:14;;;;;;;;;;;18.50;99.90;;;;;;5136145;27;19942;-56
2023/07/14 05:55:40;;;;;;;;;;;18.60;99.90;;;;;;5137949;28;19908;-56
2023/07/14 05:58:07;;;;;;;;;;;18.60;99.90;;;;;;5126272;28;19915;-56
2023/07/14 06:00:38;;;;;;;;;;;18.60;99.90;;;;;;5137560;28;19915;-51
2023/07/14 06:03:04;;;;;;;;;;;18.60;99.90;;;;;;5121037;28;19955;-56
2023/07/14 06:05:30;;;;;;;;;;;18.70;99.90;;;;;;5124376;28;19930;-55
2023/07/14 06:07:56;;;;;;;;;;;18.70;99.90;;;;;;5134150;28;19911;-54
2023/07/14 06:10:21;;;;;;;;;;;18.80;99.90;;;;;;5125532;28;19920;-54
2023/07/14 06:12:47;;;;;;;;;;;18.80;99.90;;;;;;5134266;28;20005;-55
2023/07/14 06:15:13;;;;;;;;;;;18.80;99.90;;;;;;5121544;28;20052;-55
2023/07/14 06:17:39;;;;;;;;;;;18.80;99.90;;;;;;5133990;28;19964;-54
2023/07/14 06:20:05;;;;;;;;;;;18.80;99.90;;;;;;5126433;28;19915;-55
2023/07/14 06:22:31;;;;;;;;;;;18.80;99.90;;;;;;5134737;28;19926;-56
2023/07/14 06:24:56;;;;;;;;;;;18.80;99.90;;;;;;5127946;28;19912;-55
2023/07/14 06:27:24;;;;;;;;;;;18.70;99.90;;;;;;5123420;28;20350;-55
2023/07/14 06:29:50;;;;;;;;;;;18.70;99.90;;;;;;5120808;28;20018;-56
2023/07/14 06:32:16;;;;;;;;;;;18.70;99.90;;;;;;5127002;28;19962;-54
2023/07/14 06:34:42;;;;;;;;;;;18.70;99.90;;;;;;5120340;28;19979;-56
2023/07/14 06:37:08;;;;;;;;;;;18.70;99.90;;;;;;5124350;28;19912;-54
2023/07/14 06:39:34;;;;;;;;;;;18.70;99.90;;;;;;5131794;28;19927;-53
2023/07/14 06:41:59;;;;;;;;;;;18.70;99.90;;;;;;5134345;28;19912;-56
2023/07/14 06:44:25;;;;;;;;;;;18.70;99.90;;;;;;5126108;28;19912;-56
2023/07/14 06:46:51;;;;;;;;;;;18.70;99.90;;;;;;5127716;27;19990;-55
2023/07/14 06:49:16;;;;;;;;;;;18.70;99.90;;;;;;5126272;27;20332;-56
2023/07/14 06:51:42;;;;;;;;;;;18.70;99.90;;;;;;5130815;27;19915;-50
2023/07/14 06:54:08;;;;;;;;;;;18.70;99.90;;;;;;5125721;27;19965;-55
2023/07/14 06:56:33;;;;;;;;;;;18.70;99.90;;;;;;5130481;27;19961;-55
2023/07/14 06:58:59;;;;;;;;;;;18.70;99.90;;;;;;5135148;27;19912;-54
2023/07/14 07:01:25;;;;;;;;;;;18.80;99.90;;;;;;5135579;27;19915;-53
2023/07/14 07:03:51;;;;;;;;;;;18.80;99.90;;;;;;5108175;27;19960;-53
2023/07/14 07:06:17;;;;;;;;;;;18.80;99.90;;;;;;5126822;27;20131;-55
2023/07/14 07:08:43;;;;;;;;;;;18.70;99.90;;;;;;5126681;27;19915;-54
2023/07/14 07:11:13;;;;;;;;;;;18.80;99.90;;;;;;5132855;27;20337;-54
2023/07/14 07:13:38;;;;;;;;;;;18.70;99.90;;;;;;5135004;27;20006;-50
2023/07/14 07:16:04;;;;;;;;;;;18.80;99.90;;;;;;5121955;27;19943;-53
2023/07/14 07:18:30;;;;;;;;;;;18.80;99.90;;;;;;5121006;27;20035;-56
2023/07/14 07:20:56;;;;;;;;;;;18.90;99.90;;;;;;5127643;27;19957;-55
2023/07/14 07:23:21;;;;;;;;;;;18.90;99.90;;;;;;5120753;27;19907;-55
2023/07/14 07:25:51;;;;;;;;;;;19.00;99.90;;;;;;5120926;28;19959;-54
2023/07/14 07:28:18;;;;;;;;;;;19.00;99.90;;;;;;5123966;27;19915;-56
2023/07/14 07:30:43;;;;;;;;;;;19.00;99.90;;;;;;5129540;27;20355;-53
2023/07/14 07:33:09;;;;;;;;;;;19.10;99.90;;;;;;5131626;27;19979;-55
2023/07/14 07:35:38;;;;;;;;;;;19.20;99.90;;;;;;5120739;28;19930;-56
2023/07/14 07:38:04;;;;;;;;;;;19.30;99.90;;;;;;5130073;27;19959;-56
2023/07/14 07:40:30;;;;;;;;;;;19.30;99.90;;;;;;5126407;27;19968;-54
2023/07/14 07:42:56;;;;;;;;;;;19.40;99.90;;;;;;5130066;27;19907;-55
2023/07/14 07:45:21;;;;;;;;;;;19.40;99.90;;;;;;5137859;27;19911;-55
2023/07/14 07:47:47;;;;;;;;;;;19.50;99.90;;;;;;5137416;27;19907;-54
2023/07/14 07:50:13;;;;;;;;;;;19.60;99.90;;;;;;5122717;27;19918;-57
2023/07/14 07:52:38;;;;;;;;;;;19.80;99.90;;;;;;5129731;27;19907;-56
2023/07/14 07:55:04;;;;;;;;;;;19.90;99.90;;;;;;5137919;27;19939;-54
2023/07/14 07:57:31;;;;;;;;;;;20.00;99.90;;;;;;5138625;27;20002;-56
2023/07/14 07:59:57;;;;;;;;;;;20.00;99.90;;;;;;5134198;27;19912;-55
2023/07/14 08:02:22;;;;;;;;;;;20.00;99.90;;;;;;5120335;27;20538;-54
2023/07/14 08:04:49;;;;;;;;;;;19.90;99.90;;;;;;5122187;27;19915;-56
2023/07/14 08:07:15;;;;;;;;;;;19.90;99.90;;;;;;5126875;27;20553;-55
2023/07/14 08:09:41;;;;;;;;;;;19.90;99.90;;;;;;5121773;27;19953;-54
2023/07/14 08:12:07;;;;;;;;;;;19.90;99.90;;;;;;5127178;27;19933;-54
2023/07/14 08:14:35;;;;;;;;;;;20.00;99.90;;;;;;5129845;27;19952;-56
2023/07/14 08:17:01;;;;;;;;;;;20.00;99.90;;;;;;5128868;27;19919;-56
2023/07/14 08:19:27;;;;;;;;;;;20.00;99.90;;;;;;5129390;27;19919;-56
2023/07/14 08:21:52;;;;;;;;;;;20.10;99.90;;;;;;5131029;27;19911;-55
2023/07/14 08:24:19;;;;;;;;;;;20.60;99.90;;;;;;5130641;27;19912;-56
2023/07/14 08:26:44;;;;;;;;;;;20.10;99.90;;;;;;5114897;27;20393;-56
2023/07/14 08:29:10;;;;;;;;;;;20.10;99.90;;;;;;5131005;27;19911;-55
2023/07/14 08:31:36;;;;;;;;;;;20.10;99.90;;;;;;5127180;27;20010;-56
2023/07/14 08:34:01;;;;;;;;;;;20.10;99.90;;;;;;5128740;27;19924;-57
2023/07/14 08:36:27;;;;;;;;;;;20.20;99.90;;;;;;5137538;27;19912;-56
2023/07/14 08:38:54;;;;;;;;;;;20.20;99.90;;;;;;5131029;27;20399;-55
2023/07/14 08:41:33;;;;;;;;;;;20.30;99.90;;;;;;5124731;27;19920;-54
2023/07/14 08:44:01;;;;;;;;;;;20.40;99.90;;;;;;5127950;27;19907;-56
2023/07/14 08:46:38;;;;;;;;;;;20.30;99.90;;;;;;5139690;27;19930;-56
2023/07/14 08:49:15;;;;;;;;;;;20.30;99.90;;;;;;5121929;27;19926;-56
2023/07/14 08:51:45;;;;;;;;;;;20.40;99.90;;;;;;5122909;27;20001;-55
2023/07/14 08:54:17;;;;;;;;;;;20.40;99.90;;;;;;5139946;27;19908;-56
2023/07/14 08:56:43;;;;;;;;;;;20.50;99.90;;;;;;5126287;27;19922;-55
2023/07/14 08:59:13;;;;;;;;;;;20.70;99.90;;;;;;5129297;27;19942;-55
2023/07/14 09:01:45;;;;;;;;;;;20.80;99.90;;;;;;5128000;27;19920;-56
2023/07/14 09:04:15;;;;;;;;;;;20.80;99.90;;;;;;5120037;27;19915;-55
2023/07/14 09:06:41;;;;;;;;;;;20.80;99.90;;;;;;5137049;27;19942;-56
2023/07/14 09:09:29;;;;;;;;;;;20.70;99.90;;;;;;5137784;27;20397;-56
2023/07/14 09:11:55;;;;;;;;;;;20.70;99.90;;;;;;5125251;27;20354;-55
2023/07/14 09:14:31;;;;;;;;;;;20.60;99.90;;;;;;5138677;27;19934;-54
2023/07/14 09:17:05;;;;;;;;;;;20.50;99.90;;;;;;5130452;27;19920;-57
2023/07/14 09:19:57;;;;;;;;;;;20.40;99.90;;;;;;5100855;27;19919;-56
2023/07/14 09:22:32;;;;;;;;;;;20.40;99.90;;;;;;5121800;27;20295;-57
2023/07/14 09:25:11;;;;;;;;;;;20.40;99.90;;;;;;5133791;27;19914;-56
2023/07/14 09:27:37;;;;;;;;;;;20.50;99.90;;;;;;5134747;27;19911;-56
2023/07/14 09:30:09;;;;;;;;;;;20.60;99.90;;;;;;5121642;27;19912;-56
2023/07/14 09:32:39;;;;;;;;;;;20.60;99.90;;;;;;5132352;27;19998;-55
2023/07/14 09:35:12;;;;;;;;;;;20.60;99.90;;;;;;5138332;27;19912;-54
2023/07/14 09:37:53;;;;;;;;;;;20.50;99.90;;;;;;5137710;27;19960;-56
2023/07/14 09:40:23;;;;;;;;;;;20.50;99.90;;;;;;5139245;27;19947;-55
2023/07/14 09:42:52;;;;;;;;;;;20.50;99.90;;;;;;5138186;27;19915;-56
2023/07/14 09:45:31;;;;;;;;;;;20.50;99.90;;;;;;5139179;27;19934;-56
2023/07/14 09:48:08;;;;;;;;;;;20.50;99.90;;;;;;5121021;27;19957;-56
2023/07/14 09:50:39;;;;;;;;;;;20.50;99.90;;;;;;5118594;28;19939;-56
2023/07/14 09:53:05;;;;;;;;;;;20.50;99.90;;;;;;5117090;28;19912;-57
2023/07/14 09:55:50;;;;;;;;;;;20.50;99.90;;;;;;5118239;28;19912;-56
2023/07/14 09:58:16;;;;;;;;;;;20.50;99.90;;;;;;5118444;28;19908;-57
2023/07/14 10:00:42;;;;;;;;;;;20.50;99.90;;;;;;5118628;28;19922;-56
2023/07/14 10:03:10;;;;;;;;;;;20.50;99.90;;;;;;5118426;28;19912;-56
2023/07/14 10:05:38;;;;;;;;;;;20.60;99.90;;;;;;5119793;28;19964;-56
2023/07/14 10:08:04;;;;;;;;;;;20.70;99.90;;;;;;5138779;28;19923;-57
2023/07/14 10:10:33;;;;;;;;;;;20.70;99.90;;;;;;5137624;28;19908;-57
2023/07/14 10:13:13;;;;;;;;;;;20.90;99.90;;;;;;5138601;28;20289;-57
2023/07/14 10:15:39;;;;;;;;;;;21.10;99.90;;;;;;5138724;28;19907;-57
2023/07/14 10:18:06;;;;;;;;;;;21.10;99.90;;;;;;5138797;28;19926;-54
2023/07/14 10:20:33;;;;;;;;;;;21.10;99.90;;;;;;5129239;27;20309;-56
2023/07/14 10:22:59;;;;;;;;;;;21.00;99.90;;;;;;5121631;28;20282;-57
2023/07/14 10:25:26;;;;;;;;;;;21.10;99.90;;;;;;5121116;28;19965;-57
2023/07/14 10:27:59;;;;;;;;;;;21.10;99.90;;;;;;5121456;28;20006;-57
2023/07/14 10:30:44;;;;;;;;;;;21.20;99.90;;;;;;5121615;27;19919;-55
2023/07/14 10:33:32;;;;;;;;;;;21.00;99.90;;;;;;5121536;28;20649;-56
2023/07/14 10:36:01;;;;;;;;;;;20.90;99.90;;;;;;5074031;28;19908;-56
2023/07/14 10:38:33;;;;;;;;;;;20.90;99.90;;;;;;5121433;28;19956;-56
2023/07/14 10:41:01;;;;;;;;;;;20.80;99.90;;;;;;5122067;27;19912;-56
2023/07/14 10:43:33;;;;;;;;;;;20.80;99.90;;;;;;5121728;28;19912;-57
2023/07/14 10:46:00;;;;;;;;;;;20.70;99.90;;;;;;5121629;28;19914;-57
2023/07/14 10:48:29;;;;;;;;;;;20.60;99.90;;;;;;5121719;28;19908;-57
2023/07/14 10:50:57;;;;;;;;;;;20.60;99.90;;;;;;5121734;27;19911;-56
2023/07/14 10:53:32;;;;;;;;;;;20.50;99.90;;;;;;5121575;28;20007;-56
2023/07/14 10:56:01;;;;;;;;;;;20.50;99.90;;;;;;5121845;28;19911;-56
2023/07/14 10:58:32;;;;;;;;;;;20.40;99.90;;;;;;5121246;28;19914;-55
2023/07/14 11:01:00;;;;;;;;;;;20.40;99.90;;;;;;5121305;27;20394;-56
2023/07/14 11:03:26;;;;;;;;;;;20.40;99.90;;;;;;5121455;28;19911;-55
2023/07/14 11:06:18;;;;;;;;;;;20.30;99.90;;;;;;5121554;28;19908;-56
2023/07/14 11:08:45;;;;;;;;;;;20.20;99.90;;;;;;5120873;28;20393;-56
2023/07/14 11:11:19;;;;;;;;;;;20.20;99.90;;;;;;5121618;28;19908;-56
2023/07/14 11:14:00;;;;;;;;;;;20.20;99.90;;;;;;5121416;28;19937;-55
2023/07/14 11:16:25;;;;;;;;;;;20.20;99.90;;;;;;5121109;28;19907;-57
2023/07/14 11:19:17;;;;;;;;;;;20.20;99.90;;;;;;5121104;28;19927;-56
2023/07/14 11:21:54;;;;;;;;;;;20.10;99.90;;;;;;5099546;27;19920;-57
2023/07/14 11:24:22;;;;;;;;;;;20.20;99.90;;;;;;5141867;27;19908;-56
2023/07/14 11:27:05;;;;;;;;;;;20.10;99.90;;;;;;5141690;27;19907;-54
2023/07/14 11:29:38;;;;;;;;;;;20.00;99.90;;;;;;5140333;27;19907;-56
2023/07/14 11:32:04;;;;;;;;;;;20.00;99.90;;;;;;5119245;28;19908;-56
2023/07/14 11:34:29;;;;;;;;;;;19.90;99.90;;;;;;5121058;28;19934;-52
2023/07/14 11:37:04;;;;;;;;;;;19.80;99.90;;;;;;5120563;28;19957;-56
2023/07/14 11:39:39;;;;;;;;;;;19.60;99.90;;;;;;5121318;27;19943;-56
2023/07/14 11:42:05;;;;;;;;;;;19.40;99.90;;;;;;5120568;28;19911;-56
2023/07/14 11:44:30;;;;;;;;;;;19.20;99.90;;;;;;5120689;28;19952;-56
2023/07/14 11:46:58;;;;;;;;;;;19.20;99.90;;;;;;5120572;28;19990;-59
2023/07/14 11:49:24;;;;;;;;;;;19.00;99.90;;;;;;5120249;28;19988;-59
2023/07/14 11:51:51;;;;;;;;;;;19.00;99.90;;;;;;5121581;27;19915;-59
2023/07/14 11:54:17;;;;;;;;;;;18.90;99.90;;;;;;5141221;27;19912;-60
2023/07/14 11:56:46;;;;;;;;;;;18.90;99.90;;;;;;5141245;27;19932;-60
2023/07/14 11:59:21;;;;;;;;;;;18.90;99.90;;;;;;5141638;27;19908;-59
2023/07/14 12:01:49;;;;;;;;;;;18.80;99.90;;;;;;5121132;27;19912;-59
2023/07/14 12:04:20;;;;;;;;;;;18.80;99.90;;;;;;5120505;28;19908;-59
2023/07/14 12:06:48;;;;;;;;;;;18.70;99.90;;;;;;5120076;28;20276;-59
2023/07/14 12:09:18;;;;;;;;;;;18.70;99.90;;;;;;5120471;28;19956;-59
2023/07/14 12:11:49;;;;;;;;;;;18.70;99.90;;;;;;5120204;27;20430;-60
2023/07/14 12:14:25;;;;;;;;;;;18.60;99.90;;;;;;5120310;28;19915;-61
2023/07/14 12:16:50;;;;;;;;;;;18.60;99.90;;;;;;5120022;28;19914;-60
2023/07/14 12:19:24;;;;;;;;;;;18.50;99.90;;;;;;5119858;28;19924;-60
2023/07/14 12:22:09;;;;;;;;;;;18.50;99.90;;;;;;5119878;27;19912;-61
2023/07/14 12:24:48;;;;;;;;;;;18.50;99.90;;;;;;5119925;28;20285;-61
2023/07/14 12:27:13;;;;;;;;;;;18.40;99.90;;;;;;5120459;28;19915;-60
2023/07/14 12:29:40;;;;;;;;;;;18.40;99.90;;;;;;5120060;28;20363;-60
2023/07/14 12:32:16;;;;;;;;;;;18.50;99.90;;;;;;5139815;27;19911;-60
2023/07/14 12:34:43;;;;;;;;;;;18.50;99.90;;;;;;5140323;27;19947;-59
2023/07/14 12:37:14;;;;;;;;;;;18.50;99.90;;;;;;5130817;27;19934;-60
2023/07/14 12:39:46;;;;;;;;;;;18.50;99.90;;;;;;5127647;27;19960;-59
2023/07/14 12:42:13;;;;;;;;;;;18.50;99.90;;;;;;5128338;27;19907;-60
2023/07/14 12:44:39;;;;;;;;;;;18.50;99.90;;;;;;5129924;27;19990;-59
2023/07/14 12:47:07;;;;;;;;;;;18.60;99.90;;;;;;5128474;27;20367;-59
2023/07/14 12:49:36;;;;;;;;;;;18.60;99.90;;;;;;5128482;27;20059;-60
2023/07/14 12:52:25;;;;;;;;;;;18.60;99.90;;;;;;5128110;27;19912;-59
2023/07/14 12:54:52;;;;;;;;;;;18.60;99.90;;;;;;5128970;27;19915;-59
2023/07/14 12:57:18;;;;;;;;;;;18.60;99.90;;;;;;5123153;27;19912;-59
2023/07/14 12:59:48;;;;;;;;;;;18.60;99.90;;;;;;5119541;28;19919;-59
2023/07/14 13:02:13;;;;;;;;;;;18.60;99.90;;;;;;5128290;27;19907;-59
2023/07/14 13:04:39;;;;;;;;;;;18.60;99.90;;;;;;5139884;27;19907;-59
2023/07/14 13:07:11;;;;;;;;;;;18.60;99.90;;;;;;5139889;27;20001;-59
2023/07/14 13:09:37;;;;;;;;;;;18.60;99.90;;;;;;5121119;27;19985;-59
2023/07/14 13:12:03;;;;;;;;;;;18.60;99.90;;;;;;5139740;27;19907;-59
2023/07/14 13:14:36;;;;;;;;;;;18.60;99.90;;;;;;5129349;27;19915;-59
2023/07/14 13:17:03;;;;;;;;;;;18.60;99.90;;;;;;5119049;28;19975;-59
2023/07/14 13:19:38;;;;;;;;;;;18.70;99.90;;;;;;5119018;27;19923;-59
2023/07/14 13:22:03;;;;;;;;;;;18.70;99.90;;;;;;5138954;27;19912;-58
2023/07/14 13:24:30;;;;;;;;;;;18.70;99.90;;;;;;5126518;27;19914;-59
2023/07/14 13:27:00;;;;;;;;;;;18.70;99.90;;;;;;5117938;28;20193;-59
2023/07/14 13:29:33;;;;;;;;;;;18.70;99.90;;;;;;5124783;27;19907;-59
2023/07/14 13:31:59;;;;;;;;;;;18.70;99.90;;;;;;5139692;27;19907;-59
2023/07/14 13:34:29;;;;;;;;;;;18.70;99.90;;;;;;5139094;27;19915;-59
2023/07/14 13:36:55;;;;;;;;;;;18.70;99.90;;;;;;5139343;27;20283;-58
2023/07/14 13:39:24;;;;;;;;;;;18.60;99.90;;;;;;5138951;27;19912;-59
2023/07/14 13:41:49;;;;;;;;;;;18.60;99.90;;;;;;5112491;28;19907;-58
2023/07/14 13:44:28;;;;;;;;;;;18.60;99.90;;;;;;5124530;28;19912;-58
2023/07/14 13:46:54;;;;;;;;;;;18.60;99.90;;;;;;5126742;27;19919;-58
2023/07/14 13:49:20;;;;;;;;;;;18.60;99.90;;;;;;5132897;27;19908;-58
2023/07/14 13:51:46;;;;;;;;;;;18.50;99.90;;;;;;5131526;27;19911;-58
2023/07/14 13:54:16;;;;;;;;;;;18.70;99.90;;;;;;5117823;28;20320;-59
2023/07/14 13:56:41;;;;;;;;;;;18.80;99.90;;;;;;5127668;28;19907;-59
2023/07/14 13:59:12;;;;;;;;;;;18.80;99.90;;;;;;5138971;28;19915;-59
2023/07/14 14:01:38;;;;;;;;;;;18.80;99.90;;;;;;5138601;28;20005;-59
2023/07/14 14:04:04;;;;;;;;;;;18.80;99.90;;;;;;5135626;28;19961;-59
2023/07/14 14:06:29;;;;;;;;;;;19.10;99.90;;;;;;5128670;28;20346;-59
2023/07/14 14:08:55;;;;;;;;;;;18.70;99.90;;;;;;5126723;28;20463;-59
2023/07/14 14:11:20;;;;;;;;;;;18.80;99.90;;;;;;5135045;28;19968;-59
2023/07/14 14:13:46;;;;;;;;;;;18.80;99.90;;;;;;5138424;28;19913;-58
2023/07/14 14:16:16;;;;;;;;;;;18.90;99.90;;;;;;5138949;28;19912;-58
2023/07/14 14:18:43;;;;;;;;;;;18.90;99.90;;;;;;5124608;28;20010;-59
2023/07/14 14:21:09;;;;;;;;;;;18.80;99.90;;;;;;5118857;28;20317;-59
2023/07/14 14:23:35;;;;;;;;;;;18.80;99.90;;;;;;5117864;28;20407;-58